Weather at Szczodrkowice Private Airstrip

Public forecast

Using degrees Celsius for public forecast. Weather courtesy of forecast.io.

Closest aviation weather report (METAR) to Szczodrkowice Private Airstrip

Closest report is Kraków John Paul II International Airport, 7.8 nm (14.5 km) SSW.

2024/05/26 18:00 (retrieved 30 minutes ago)

EPKK 261800Z 36006KT 300V040 9999 SCT040CB SCT066 18/12 Q1020 RETS

Closest aviation forecast (TAF) to Szczodrkowice Private Airstrip

Closest forecast is Kraków John Paul II International Airport, 7.8 nm (14.5 km) SSW.

2024/05/26 18:33 (retrieved 0 seconds ago)

TAF EPKK 261730Z 2618/2718 14006KT CAVOK TEMPO 2618/2619 VRB15G35KT 2500 TSRA BKN040CB TEMPO 2701/2705 0500 FG PROB40 TEMPO 2712/2718 VRB18G35KT 3000 TSRA BKN050CB